sensor_id;sensor_type;location;lat;lon;timestamp;P1;durP1;ratioP1;P2;durP2;ratioP2
21777;SDS011;11050;52.222;20.916;2023-05-19T00:01:39;3.95;;;1.65;;
21777;SDS011;11050;52.222;20.916;2023-05-19T00:04:07;3.35;;;1.60;;
21777;SDS011;11050;52.222;20.916;2023-05-19T00:06:36;4.53;;;1.77;;
21777;SDS011;11050;52.222;20.916;2023-05-19T00:09:03;3.17;;;1.83;;
21777;SDS011;11050;52.222;20.916;2023-05-19T00:11:32;2.10;;;1.73;;
21777;SDS011;11050;52.222;20.916;2023-05-19T00:14:01;2.25;;;1.70;;
21777;SDS011;11050;52.222;20.916;2023-05-19T00:16:30;3.38;;;1.80;;
21777;SDS011;11050;52.222;20.916;2023-05-19T00:18:58;2.78;;;1.40;;
21777;SDS011;11050;52.222;20.916;2023-05-19T00:21:26;4.90;;;1.75;;
21777;SDS011;11050;52.222;20.916;2023-05-19T00:23:53;2.17;;;1.48;;
21777;SDS011;11050;52.222;20.916;2023-05-19T00:26:19;5.80;;;1.80;;
21777;SDS011;11050;52.222;20.916;2023-05-19T00:28:46;2.75;;;1.60;;
21777;SDS011;11050;52.222;20.916;2023-05-19T00:31:13;3.35;;;1.77;;
21777;SDS011;11050;52.222;20.916;2023-05-19T00:33:39;2.95;;;1.58;;
21777;SDS011;11050;52.222;20.916;2023-05-19T00:36:04;2.42;;;1.77;;
21777;SDS011;11050;52.222;20.916;2023-05-19T00:38:31;4.55;;;2.10;;
21777;SDS011;11050;52.222;20.916;2023-05-19T00:41:00;3.72;;;1.95;;
21777;SDS011;11050;52.222;20.916;2023-05-19T00:43:27;2.28;;;1.85;;
21777;SDS011;11050;52.222;20.916;2023-05-19T00:45:54;2.95;;;1.70;;
21777;SDS011;11050;52.222;20.916;2023-05-19T00:48:21;2.35;;;1.65;;
21777;SDS011;11050;52.222;20.916;2023-05-19T00:50:47;2.15;;;1.70;;
21777;SDS011;11050;52.222;20.916;2023-05-19T00:53:15;2.30;;;1.60;;
21777;SDS011;11050;52.222;20.916;2023-05-19T00:55:43;2.28;;;1.58;;
21777;SDS011;11050;52.222;20.916;2023-05-19T00:58:10;1.95;;;1.52;;
21777;SDS011;11050;52.222;20.916;2023-05-19T01:00:37;3.15;;;1.50;;
21777;SDS011;11050;52.222;20.916;2023-05-19T01:03:04;2.58;;;1.52;;
21777;SDS011;11050;52.222;20.916;2023-05-19T01:05:40;2.10;;;1.58;;
21777;SDS011;11050;52.222;20.916;2023-05-19T01:08:08;1.80;;;1.40;;
21777;SDS011;11050;52.222;20.916;2023-05-19T01:10:34;2.92;;;1.80;;
21777;SDS011;11050;52.222;20.916;2023-05-19T01:13:01;2.53;;;1.63;;
21777;SDS011;11050;52.222;20.916;2023-05-19T01:15:28;7.38;;;1.90;;
21777;SDS011;11050;52.222;20.916;2023-05-19T01:21:19;3.13;;;1.90;;
21777;SDS011;11050;52.222;20.916;2023-05-19T01:33:07;2.75;;;1.40;;
21777;SDS011;11050;52.222;20.916;2023-05-19T01:35:41;3.47;;;1.85;;
21777;SDS011;11050;52.222;20.916;2023-05-19T01:38:09;3.90;;;1.52;;
21777;SDS011;11050;52.222;20.916;2023-05-19T01:40:37;2.67;;;1.52;;
21777;SDS011;11050;52.222;20.916;2023-05-19T01:43:06;3.25;;;2.00;;
21777;SDS011;11050;52.222;20.916;2023-05-19T01:45:34;2.78;;;1.80;;
21777;SDS011;11050;52.222;20.916;2023-05-19T01:48:01;2.38;;;1.83;;
21777;SDS011;11050;52.222;20.916;2023-05-19T01:50:29;3.20;;;2.00;;
21777;SDS011;11050;52.222;20.916;2023-05-19T01:52:55;3.00;;;1.70;;
21777;SDS011;11050;52.222;20.916;2023-05-19T01:55:21;1.80;;;1.60;;
21777;SDS011;11050;52.222;20.916;2023-05-19T02:00:59;3.33;;;2.08;;
21777;SDS011;11050;52.222;20.916;2023-05-19T02:04:06;3.65;;;2.17;;
21777;SDS011;11050;52.222;20.916;2023-05-19T02:09:43;4.75;;;2.28;;
21777;SDS011;11050;52.222;20.916;2023-05-19T02:12:31;3.20;;;2.00;;
21777;SDS011;11050;52.222;20.916;2023-05-19T02:17:41;3.47;;;2.50;;
21777;SDS011;11050;52.222;20.916;2023-05-19T02:20:12;3.30;;;2.30;;
21777;SDS011;11050;52.222;20.916;2023-05-19T02:22:39;4.47;;;2.28;;
21777;SDS011;11050;52.222;20.916;2023-05-19T02:25:05;6.43;;;3.08;;
21777;SDS011;11050;52.222;20.916;2023-05-19T02:27:32;4.68;;;2.60;;
21777;SDS011;11050;52.222;20.916;2023-05-19T02:30:03;4.95;;;2.65;;
21777;SDS011;11050;52.222;20.916;2023-05-19T02:32:30;4.10;;;2.50;;
21777;SDS011;11050;52.222;20.916;2023-05-19T02:35:00;9.20;;;2.53;;
21777;SDS011;11050;52.222;20.916;2023-05-19T02:37:26;5.50;;;2.63;;
21777;SDS011;11050;52.222;20.916;2023-05-19T02:39:53;4.47;;;2.38;;
21777;SDS011;11050;52.222;20.916;2023-05-19T02:42:19;4.90;;;2.53;;
21777;SDS011;11050;52.222;20.916;2023-05-19T02:44:45;4.93;;;2.90;;
21777;SDS011;11050;52.222;20.916;2023-05-19T02:47:11;4.50;;;2.47;;
21777;SDS011;11050;52.222;20.916;2023-05-19T02:49:37;4.97;;;2.78;;
21777;SDS011;11050;52.222;20.916;2023-05-19T02:52:03;3.90;;;2.72;;
21777;SDS011;11050;52.222;20.916;2023-05-19T02:54:30;3.63;;;2.83;;
21777;SDS011;11050;52.222;20.916;2023-05-19T02:56:57;5.38;;;3.05;;
21777;SDS011;11050;52.222;20.916;2023-05-19T02:59:23;3.72;;;3.00;;
21777;SDS011;11050;52.222;20.916;2023-05-19T03:01:53;6.07;;;3.33;;
21777;SDS011;11050;52.222;20.916;2023-05-19T03:04:22;5.30;;;2.83;;
21777;SDS011;11050;52.222;20.916;2023-05-19T03:06:48;4.28;;;3.20;;
21777;SDS011;11050;52.222;20.916;2023-05-19T03:09:14;3.65;;;3.28;;
21777;SDS011;11050;52.222;20.916;2023-05-19T03:11:39;5.30;;;3.60;;
21777;SDS011;11050;52.222;20.916;2023-05-19T03:14:05;7.60;;;3.55;;
21777;SDS011;11050;52.222;20.916;2023-05-19T03:16:33;5.50;;;3.53;;
21777;SDS011;11050;52.222;20.916;2023-05-19T03:18:59;6.63;;;3.80;;
21777;SDS011;11050;52.222;20.916;2023-05-19T03:21:25;6.60;;;3.47;;
21777;SDS011;11050;52.222;20.916;2023-05-19T03:23:51;7.70;;;3.67;;
21777;SDS011;11050;52.222;20.916;2023-05-19T03:26:18;4.82;;;3.33;;
21777;SDS011;11050;52.222;20.916;2023-05-19T03:28:44;5.50;;;3.60;;
21777;SDS011;11050;52.222;20.916;2023-05-19T03:31:09;7.00;;;3.83;;
21777;SDS011;11050;52.222;20.916;2023-05-19T03:33:35;5.47;;;3.78;;
21777;SDS011;11050;52.222;20.916;2023-05-19T03:36:01;5.47;;;3.83;;
21777;SDS011;11050;52.222;20.916;2023-05-19T03:38:27;5.20;;;3.70;;
21777;SDS011;11050;52.222;20.916;2023-05-19T03:40:53;7.22;;;3.70;;
21777;SDS011;11050;52.222;20.916;2023-05-19T03:43:19;9.75;;;4.18;;
21777;SDS011;11050;52.222;20.916;2023-05-19T03:45:45;5.80;;;3.70;;
21777;SDS011;11050;52.222;20.916;2023-05-19T03:48:10;7.53;;;4.03;;
21777;SDS011;11050;52.222;20.916;2023-05-19T03:50:36;7.57;;;3.60;;
21777;SDS011;11050;52.222;20.916;2023-05-19T03:53:02;5.72;;;3.63;;
21777;SDS011;11050;52.222;20.916;2023-05-19T03:55:28;7.82;;;3.80;;
21777;SDS011;11050;52.222;20.916;2023-05-19T03:57:54;4.82;;;3.97;;
21777;SDS011;11050;52.222;20.916;2023-05-19T04:00:20;7.13;;;4.28;;
21777;SDS011;11050;52.222;20.916;2023-05-19T04:02:46;5.28;;;3.88;;
21777;SDS011;11050;52.222;20.916;2023-05-19T04:05:13;7.00;;;3.67;;
21777;SDS011;11050;52.222;20.916;2023-05-19T04:07:39;9.38;;;4.82;;
21777;SDS011;11050;52.222;20.916;2023-05-19T04:10:05;6.55;;;4.22;;
21777;SDS011;11050;52.222;20.916;2023-05-19T04:12:32;6.15;;;3.50;;
21777;SDS011;11050;52.222;20.916;2023-05-19T04:14:58;6.18;;;3.85;;
21777;SDS011;11050;52.222;20.916;2023-05-19T04:17:24;5.82;;;3.83;;
21777;SDS011;11050;52.222;20.916;2023-05-19T04:19:51;4.25;;;3.50;;
21777;SDS011;11050;52.222;20.916;2023-05-19T04:22:20;7.28;;;4.35;;
21777;SDS011;11050;52.222;20.916;2023-05-19T04:24:45;7.57;;;4.32;;
21777;SDS011;11050;52.222;20.916;2023-05-19T04:27:12;7.72;;;4.43;;
21777;SDS011;11050;52.222;20.916;2023-05-19T04:29:40;6.07;;;3.90;;
21777;SDS011;11050;52.222;20.916;2023-05-19T04:32:06;6.03;;;4.45;;
21777;SDS011;11050;52.222;20.916;2023-05-19T04:34:35;5.53;;;4.10;;
21777;SDS011;11050;52.222;20.916;2023-05-19T04:37:05;7.10;;;4.35;;
21777;SDS011;11050;52.222;20.916;2023-05-19T04:39:34;6.63;;;3.92;;
21777;SDS011;11050;52.222;20.916;2023-05-19T04:42:03;5.43;;;4.20;;
21777;SDS011;11050;52.222;20.916;2023-05-19T04:44:28;5.85;;;3.70;;
21777;SDS011;11050;52.222;20.916;2023-05-19T04:46:55;6.40;;;4.20;;
21777;SDS011;11050;52.222;20.916;2023-05-19T04:49:22;7.05;;;3.75;;
21777;SDS011;11050;52.222;20.916;2023-05-19T04:51:48;5.88;;;4.13;;
21777;SDS011;11050;52.222;20.916;2023-05-19T04:54:15;4.80;;;3.30;;
21777;SDS011;11050;52.222;20.916;2023-05-19T04:56:41;4.82;;;3.50;;
21777;SDS011;11050;52.222;20.916;2023-05-19T04:59:07;5.70;;;3.08;;
21777;SDS011;11050;52.222;20.916;2023-05-19T05:01:34;6.38;;;3.63;;
21777;SDS011;11050;52.222;20.916;2023-05-19T05:04:04;5.55;;;3.28;;
21777;SDS011;11050;52.222;20.916;2023-05-19T05:06:31;3.80;;;2.88;;
21777;SDS011;11050;52.222;20.916;2023-05-19T05:08:57;5.80;;;3.45;;
21777;SDS011;11050;52.222;20.916;2023-05-19T05:11:24;3.20;;;2.72;;
21777;SDS011;11050;52.222;20.916;2023-05-19T05:13:50;4.57;;;2.97;;
21777;SDS011;11050;52.222;20.916;2023-05-19T05:16:16;4.63;;;3.08;;
21777;SDS011;11050;52.222;20.916;2023-05-19T05:18:43;4.75;;;2.53;;
21777;SDS011;11050;52.222;20.916;2023-05-19T05:21:10;6.68;;;3.47;;
21777;SDS011;11050;52.222;20.916;2023-05-19T05:23:36;3.95;;;3.05;;
21777;SDS011;11050;52.222;20.916;2023-05-19T05:26:04;6.13;;;3.45;;
21777;SDS011;11050;52.222;20.916;2023-05-19T05:28:43;4.70;;;3.40;;
21777;SDS011;11050;52.222;20.916;2023-05-19T05:31:09;4.07;;;3.30;;
21777;SDS011;11050;52.222;20.916;2023-05-19T05:33:35;3.13;;;2.75;;
21777;SDS011;11050;52.222;20.916;2023-05-19T05:36:02;3.78;;;3.20;;
21777;SDS011;11050;52.222;20.916;2023-05-19T05:38:29;5.88;;;3.28;;
21777;SDS011;11050;52.222;20.916;2023-05-19T05:40:55;4.60;;;3.50;;
21777;SDS011;11050;52.222;20.916;2023-05-19T05:43:20;5.20;;;3.10;;
21777;SDS011;11050;52.222;20.916;2023-05-19T05:45:46;4.20;;;2.80;;
21777;SDS011;11050;52.222;20.916;2023-05-19T05:48:12;3.95;;;3.10;;
21777;SDS011;11050;52.222;20.916;2023-05-19T05:50:38;4.93;;;3.03;;
21777;SDS011;11050;52.222;20.916;2023-05-19T05:53:06;5.15;;;2.80;;
21777;SDS011;11050;52.222;20.916;2023-05-19T05:55:33;6.05;;;3.22;;
21777;SDS011;11050;52.222;20.916;2023-05-19T05:58:00;4.22;;;3.10;;
21777;SDS011;11050;52.222;20.916;2023-05-19T06:00:26;3.88;;;2.78;;
21777;SDS011;11050;52.222;20.916;2023-05-19T06:02:52;4.45;;;3.08;;
21777;SDS011;11050;52.222;20.916;2023-05-19T06:05:18;5.18;;;3.03;;
21777;SDS011;11050;52.222;20.916;2023-05-19T06:07:44;4.82;;;3.22;;
21777;SDS011;11050;52.222;20.916;2023-05-19T06:10:10;4.30;;;2.92;;
21777;SDS011;11050;52.222;20.916;2023-05-19T06:12:36;4.13;;;3.38;;
21777;SDS011;11050;52.222;20.916;2023-05-19T06:15:04;5.82;;;3.05;;
21777;SDS011;11050;52.222;20.916;2023-05-19T06:17:31;4.60;;;2.95;;
21777;SDS011;11050;52.222;20.916;2023-05-19T06:20:01;3.40;;;2.55;;
21777;SDS011;11050;52.222;20.916;2023-05-19T06:22:29;5.10;;;3.00;;
21777;SDS011;11050;52.222;20.916;2023-05-19T06:24:55;4.43;;;2.63;;
21777;SDS011;11050;52.222;20.916;2023-05-19T06:27:21;4.18;;;2.75;;
21777;SDS011;11050;52.222;20.916;2023-05-19T06:29:47;5.28;;;2.70;;
21777;SDS011;11050;52.222;20.916;2023-05-19T06:32:12;4.45;;;2.65;;
21777;SDS011;11050;52.222;20.916;2023-05-19T06:34:39;4.10;;;2.40;;
21777;SDS011;11050;52.222;20.916;2023-05-19T06:37:05;3.92;;;2.80;;
21777;SDS011;11050;52.222;20.916;2023-05-19T06:39:31;3.78;;;2.45;;
21777;SDS011;11050;52.222;20.916;2023-05-19T06:41:57;4.70;;;2.45;;
21777;SDS011;11050;52.222;20.916;2023-05-19T06:44:22;3.38;;;2.47;;
21777;SDS011;11050;52.222;20.916;2023-05-19T06:46:48;6.05;;;2.47;;
21777;SDS011;11050;52.222;20.916;2023-05-19T06:49:14;6.00;;;2.75;;
21777;SDS011;11050;52.222;20.916;2023-05-19T06:51:39;2.83;;;2.17;;
21777;SDS011;11050;52.222;20.916;2023-05-19T06:54:05;4.18;;;2.45;;
21777;SDS011;11050;52.222;20.916;2023-05-19T06:56:31;4.55;;;2.70;;
21777;SDS011;11050;52.222;20.916;2023-05-19T06:59:04;2.95;;;2.47;;
21777;SDS011;11050;52.222;20.916;2023-05-19T07:01:30;3.38;;;2.42;;
21777;SDS011;11050;52.222;20.916;2023-05-19T07:03:55;6.18;;;2.97;;
21777;SDS011;11050;52.222;20.916;2023-05-19T07:06:21;5.20;;;2.60;;
21777;SDS011;11050;52.222;20.916;2023-05-19T07:08:47;4.53;;;2.30;;
21777;SDS011;11050;52.222;20.916;2023-05-19T07:11:12;4.78;;;2.22;;
21777;SDS011;11050;52.222;20.916;2023-05-19T07:13:38;3.53;;;2.35;;
21777;SDS011;11050;52.222;20.916;2023-05-19T07:16:04;3.17;;;2.50;;
21777;SDS011;11050;52.222;20.916;2023-05-19T07:18:30;5.72;;;2.85;;
21777;SDS011;11050;52.222;20.916;2023-05-19T07:20:56;6.75;;;2.60;;
21777;SDS011;11050;52.222;20.916;2023-05-19T07:23:22;4.18;;;2.55;;
21777;SDS011;11050;52.222;20.916;2023-05-19T07:25:48;4.40;;;2.67;;
21777;SDS011;11050;52.222;20.916;2023-05-19T07:28:18;3.28;;;2.58;;
21777;SDS011;11050;52.222;20.916;2023-05-19T07:30:44;3.33;;;2.78;;
21777;SDS011;11050;52.222;20.916;2023-05-19T07:33:10;7.57;;;2.67;;
21777;SDS011;11050;52.222;20.916;2023-05-19T07:35:35;3.75;;;2.83;;
21777;SDS011;11050;52.222;20.916;2023-05-19T07:38:01;4.65;;;2.75;;
21777;SDS011;11050;52.222;20.916;2023-05-19T07:40:27;7.05;;;3.05;;
21777;SDS011;11050;52.222;20.916;2023-05-19T07:42:53;3.50;;;2.60;;
21777;SDS011;11050;52.222;20.916;2023-05-19T07:45:19;5.90;;;3.03;;
21777;SDS011;11050;52.222;20.916;2023-05-19T07:47:44;5.72;;;2.95;;
21777;SDS011;11050;52.222;20.916;2023-05-19T07:50:10;6.07;;;3.13;;
21777;SDS011;11050;52.222;20.916;2023-05-19T07:52:36;5.18;;;2.92;;
21777;SDS011;11050;52.222;20.916;2023-05-19T07:55:01;5.68;;;3.00;;
21777;SDS011;11050;52.222;20.916;2023-05-19T07:57:27;4.75;;;3.58;;
21777;SDS011;11050;52.222;20.916;2023-05-19T07:59:53;8.48;;;3.28;;
21777;SDS011;11050;52.222;20.916;2023-05-19T08:02:18;4.22;;;3.05;;
21777;SDS011;11050;52.222;20.916;2023-05-19T08:04:44;4.15;;;2.67;;
21777;SDS011;11050;52.222;20.916;2023-05-19T08:07:10;7.25;;;3.15;;
21777;SDS011;11050;52.222;20.916;2023-05-19T08:09:35;4.93;;;3.45;;
21777;SDS011;11050;52.222;20.916;2023-05-19T08:12:01;7.10;;;3.50;;
21777;SDS011;11050;52.222;20.916;2023-05-19T08:14:28;7.20;;;3.35;;
21777;SDS011;11050;52.222;20.916;2023-05-19T08:16:55;4.57;;;3.20;;
21777;SDS011;11050;52.222;20.916;2023-05-19T08:19:20;7.15;;;3.33;;
21777;SDS011;11050;52.222;20.916;2023-05-19T08:21:46;7.10;;;3.22;;
21777;SDS011;11050;52.222;20.916;2023-05-19T08:24:12;7.43;;;3.47;;
21777;SDS011;11050;52.222;20.916;2023-05-19T08:26:38;6.30;;;3.83;;
21777;SDS011;11050;52.222;20.916;2023-05-19T08:29:03;10.02;;;3.97;;
21777;SDS011;11050;52.222;20.916;2023-05-19T08:31:29;7.45;;;3.40;;
21777;SDS011;11050;52.222;20.916;2023-05-19T08:33:55;7.03;;;4.15;;
21777;SDS011;11050;52.222;20.916;2023-05-19T08:36:20;6.07;;;3.42;;
21777;SDS011;11050;52.222;20.916;2023-05-19T08:38:46;8.88;;;3.90;;
21777;SDS011;11050;52.222;20.916;2023-05-19T08:41:11;9.50;;;4.72;;
21777;SDS011;11050;52.222;20.916;2023-05-19T08:43:37;7.65;;;3.95;;
21777;SDS011;11050;52.222;20.916;2023-05-19T08:46:03;8.63;;;4.53;;
21777;SDS011;11050;52.222;20.916;2023-05-19T08:48:31;8.27;;;4.25;;
21777;SDS011;11050;52.222;20.916;2023-05-19T08:51:35;9.30;;;3.85;;
21777;SDS011;11050;52.222;20.916;2023-05-19T08:53:55;6.85;;;3.72;;
21777;SDS011;11050;52.222;20.916;2023-05-19T08:56:36;8.07;;;3.80;;
21777;SDS011;11050;52.222;20.916;2023-05-19T08:59:03;9.65;;;4.13;;
21777;SDS011;11050;52.222;20.916;2023-05-19T09:01:29;10.23;;;4.47;;
21777;SDS011;11050;52.222;20.916;2023-05-19T09:03:56;8.77;;;4.38;;
21777;SDS011;11050;52.222;20.916;2023-05-19T09:06:22;8.23;;;4.30;;
21777;SDS011;11050;52.222;20.916;2023-05-19T09:08:48;8.55;;;4.10;;
21777;SDS011;11050;52.222;20.916;2023-05-19T09:11:14;8.05;;;4.45;;
21777;SDS011;11050;52.222;20.916;2023-05-19T09:13:40;9.23;;;4.05;;
21777;SDS011;11050;52.222;20.916;2023-05-19T09:16:06;9.85;;;4.25;;
21777;SDS011;11050;52.222;20.916;2023-05-19T09:18:32;8.82;;;4.05;;
21777;SDS011;11050;52.222;20.916;2023-05-19T09:20:59;10.77;;;4.35;;
21777;SDS011;11050;52.222;20.916;2023-05-19T09:23:29;12.82;;;4.88;;
21777;SDS011;11050;52.222;20.916;2023-05-19T09:26:00;11.35;;;4.63;;
21777;SDS011;11050;52.222;20.916;2023-05-19T09:28:29;14.07;;;4.60;;
21777;SDS011;11050;52.222;20.916;2023-05-19T09:31:09;12.75;;;4.90;;
21777;SDS011;11050;52.222;20.916;2023-05-19T09:33:36;11.73;;;4.90;;
21777;SDS011;11050;52.222;20.916;2023-05-19T09:36:03;15.52;;;5.20;;
21777;SDS011;11050;52.222;20.916;2023-05-19T09:38:32;19.35;;;5.65;;
21777;SDS011;11050;52.222;20.916;2023-05-19T09:40:59;14.82;;;5.32;;
21777;SDS011;11050;52.222;20.916;2023-05-19T09:43:26;16.77;;;5.53;;
21777;SDS011;11050;52.222;20.916;2023-05-19T09:45:54;15.10;;;5.65;;
21777;SDS011;11050;52.222;20.916;2023-05-19T09:48:30;14.02;;;5.43;;
21777;SDS011;11050;52.222;20.916;2023-05-19T09:50:56;10.43;;;5.22;;
21777;SDS011;11050;52.222;20.916;2023-05-19T09:53:24;13.77;;;5.63;;
21777;SDS011;11050;52.222;20.916;2023-05-19T09:55:53;11.63;;;5.20;;
21777;SDS011;11050;52.222;20.916;2023-05-19T09:58:21;12.20;;;4.70;;
21777;SDS011;11050;52.222;20.916;2023-05-19T10:00:48;10.90;;;5.20;;
21777;SDS011;11050;52.222;20.916;2023-05-19T10:03:15;9.52;;;4.65;;
21777;SDS011;11050;52.222;20.916;2023-05-19T10:05:42;13.60;;;5.93;;
21777;SDS011;11050;52.222;20.916;2023-05-19T10:08:09;12.23;;;5.25;;
21777;SDS011;11050;52.222;20.916;2023-05-19T10:10:36;11.38;;;5.03;;
21777;SDS011;11050;52.222;20.916;2023-05-19T10:13:03;12.35;;;5.15;;
21777;SDS011;11050;52.222;20.916;2023-05-19T10:15:29;12.60;;;4.65;;
21777;SDS011;11050;52.222;20.916;2023-05-19T10:17:56;11.05;;;5.53;;
21777;SDS011;11050;52.222;20.916;2023-05-19T10:20:23;12.63;;;5.03;;
21777;SDS011;11050;52.222;20.916;2023-05-19T10:22:51;10.73;;;5.30;;
21777;SDS011;11050;52.222;20.916;2023-05-19T10:25:16;9.98;;;4.63;;
21777;SDS011;11050;52.222;20.916;2023-05-19T10:27:58;11.48;;;4.90;;
21777;SDS011;11050;52.222;20.916;2023-05-19T10:30:34;13.18;;;5.40;;
21777;SDS011;11050;52.222;20.916;2023-05-19T10:33:05;10.30;;;5.18;;
21777;SDS011;11050;52.222;20.916;2023-05-19T10:38:37;13.02;;;5.43;;
21777;SDS011;11050;52.222;20.916;2023-05-19T10:46:55;10.55;;;5.05;;
21777;SDS011;11050;52.222;20.916;2023-05-19T10:49:21;11.27;;;5.15;;
21777;SDS011;11050;52.222;20.916;2023-05-19T10:51:47;12.80;;;5.30;;
21777;SDS011;11050;52.222;20.916;2023-05-19T10:54:13;15.93;;;5.70;;
21777;SDS011;11050;52.222;20.916;2023-05-19T10:56:44;10.98;;;5.20;;
21777;SDS011;11050;52.222;20.916;2023-05-19T10:59:30;11.55;;;5.25;;
21777;SDS011;11050;52.222;20.916;2023-05-19T11:02:02;12.38;;;5.35;;
21777;SDS011;11050;52.222;20.916;2023-05-19T11:04:47;13.35;;;5.40;;
21777;SDS011;11050;52.222;20.916;2023-05-19T11:07:20;10.45;;;4.68;;
21777;SDS011;11050;52.222;20.916;2023-05-19T11:09:51;11.68;;;5.50;;
21777;SDS011;11050;52.222;20.916;2023-05-19T11:12:20;10.98;;;5.47;;
21777;SDS011;11050;52.222;20.916;2023-05-19T11:14:50;10.55;;;5.20;;
21777;SDS011;11050;52.222;20.916;2023-05-19T11:17:18;12.63;;;5.18;;
21777;SDS011;11050;52.222;20.916;2023-05-19T11:19:53;11.40;;;5.40;;
21777;SDS011;11050;52.222;20.916;2023-05-19T11:22:21;13.15;;;5.90;;
21777;SDS011;11050;52.222;20.916;2023-05-19T11:24:55;8.80;;;5.40;;
21777;SDS011;11050;52.222;20.916;2023-05-19T11:27:23;11.40;;;5.80;;
21777;SDS011;11050;52.222;20.916;2023-05-19T11:29:52;11.80;;;5.68;;
21777;SDS011;11050;52.222;20.916;2023-05-19T11:32:20;10.43;;;5.32;;
21777;SDS011;11050;52.222;20.916;2023-05-19T11:34:51;10.75;;;6.07;;
21777;SDS011;11050;52.222;20.916;2023-05-19T11:37:18;11.20;;;6.15;;
21777;SDS011;11050;52.222;20.916;2023-05-19T11:39:45;9.38;;;5.20;;
21777;SDS011;11050;52.222;20.916;2023-05-19T11:42:11;11.55;;;5.95;;
21777;SDS011;11050;52.222;20.916;2023-05-19T11:44:37;11.95;;;6.05;;
21777;SDS011;11050;52.222;20.916;2023-05-19T11:47:05;11.60;;;5.88;;
21777;SDS011;11050;52.222;20.916;2023-05-19T11:49:32;10.73;;;5.32;;
21777;SDS011;11050;52.222;20.916;2023-05-19T11:52:01;7.68;;;5.05;;
21777;SDS011;11050;52.222;20.916;2023-05-19T11:54:29;11.15;;;5.40;;
21777;SDS011;11050;52.222;20.916;2023-05-19T11:57:00;14.77;;;5.45;;
21777;SDS011;11050;52.222;20.916;2023-05-19T11:59:28;10.55;;;5.70;;
21777;SDS011;11050;52.222;20.916;2023-05-19T12:01:56;7.72;;;5.18;;
21777;SDS011;11050;52.222;20.916;2023-05-19T12:04:25;10.88;;;5.65;;
21777;SDS011;11050;52.222;20.916;2023-05-19T12:06:50;7.53;;;4.90;;
21777;SDS011;11050;52.222;20.916;2023-05-19T12:09:17;11.82;;;5.05;;
21777;SDS011;11050;52.222;20.916;2023-05-19T12:11:46;12.20;;;5.40;;
21777;SDS011;11050;52.222;20.916;2023-05-19T12:14:11;8.88;;;5.47;;
21777;SDS011;11050;52.222;20.916;2023-05-19T12:16:37;11.80;;;6.03;;
21777;SDS011;11050;52.222;20.916;2023-05-19T12:19:06;10.63;;;5.95;;
21777;SDS011;11050;52.222;20.916;2023-05-19T12:21:32;8.35;;;5.28;;
21777;SDS011;11050;52.222;20.916;2023-05-19T12:23:58;9.90;;;5.07;;
21777;SDS011;11050;52.222;20.916;2023-05-19T12:26:27;7.75;;;4.47;;
21777;SDS011;11050;52.222;20.916;2023-05-19T12:28:52;10.68;;;5.28;;
21777;SDS011;11050;52.222;20.916;2023-05-19T12:31:19;10.98;;;5.57;;
21777;SDS011;11050;52.222;20.916;2023-05-19T12:33:48;11.80;;;5.95;;
21777;SDS011;11050;52.222;20.916;2023-05-19T12:36:17;8.95;;;5.07;;
21777;SDS011;11050;52.222;20.916;2023-05-19T12:38:43;7.20;;;4.97;;
21777;SDS011;11050;52.222;20.916;2023-05-19T12:41:12;8.65;;;4.40;;
21777;SDS011;11050;52.222;20.916;2023-05-19T12:43:39;10.10;;;5.68;;
21777;SDS011;11050;52.222;20.916;2023-05-19T12:46:08;10.52;;;5.35;;
21777;SDS011;11050;52.222;20.916;2023-05-19T12:48:44;10.23;;;5.30;;
21777;SDS011;11050;52.222;20.916;2023-05-19T12:51:15;9.07;;;5.03;;
21777;SDS011;11050;52.222;20.916;2023-05-19T12:53:45;7.82;;;5.15;;
21777;SDS011;11050;52.222;20.916;2023-05-19T12:56:14;11.13;;;5.55;;
21777;SDS011;11050;52.222;20.916;2023-05-19T12:58:41;9.23;;;5.40;;
21777;SDS011;11050;52.222;20.916;2023-05-19T13:01:17;8.27;;;4.88;;
21777;SDS011;11050;52.222;20.916;2023-05-19T13:03:43;9.18;;;5.35;;
21777;SDS011;11050;52.222;20.916;2023-05-19T13:06:09;10.50;;;5.65;;
21777;SDS011;11050;52.222;20.916;2023-05-19T13:08:35;6.03;;;4.60;;
21777;SDS011;11050;52.222;20.916;2023-05-19T13:11:03;8.90;;;4.93;;
21777;SDS011;11050;52.222;20.916;2023-05-19T13:13:29;8.43;;;5.07;;
21777;SDS011;11050;52.222;20.916;2023-05-19T13:15:55;9.85;;;5.80;;
21777;SDS011;11050;52.222;20.916;2023-05-19T13:18:21;9.50;;;5.50;;
21777;SDS011;11050;52.222;20.916;2023-05-19T13:20:46;12.02;;;5.75;;
21777;SDS011;11050;52.222;20.916;2023-05-19T13:23:16;7.88;;;5.20;;
21777;SDS011;11050;52.222;20.916;2023-05-19T13:25:43;7.95;;;4.78;;
21777;SDS011;11050;52.222;20.916;2023-05-19T13:28:08;8.30;;;4.82;;
21777;SDS011;11050;52.222;20.916;2023-05-19T13:30:35;12.75;;;5.70;;
21777;SDS011;11050;52.222;20.916;2023-05-19T13:33:03;9.05;;;5.95;;
21777;SDS011;11050;52.222;20.916;2023-05-19T13:35:29;11.25;;;5.85;;
21777;SDS011;11050;52.222;20.916;2023-05-19T13:38:02;11.05;;;5.72;;
21777;SDS011;11050;52.222;20.916;2023-05-19T13:40:29;9.80;;;5.47;;
21777;SDS011;11050;52.222;20.916;2023-05-19T13:42:57;11.02;;;5.57;;
21777;SDS011;11050;52.222;20.916;2023-05-19T13:45:23;9.32;;;5.32;;
21777;SDS011;11050;52.222;20.916;2023-05-19T13:47:48;11.13;;;6.45;;
21777;SDS011;11050;52.222;20.916;2023-05-19T13:50:14;12.23;;;5.93;;
21777;SDS011;11050;52.222;20.916;2023-05-19T13:52:40;9.13;;;5.82;;
21777;SDS011;11050;52.222;20.916;2023-05-19T13:55:06;8.00;;;5.50;;
21777;SDS011;11050;52.222;20.916;2023-05-19T13:57:32;11.73;;;6.53;;
21777;SDS011;11050;52.222;20.916;2023-05-19T13:59:59;8.90;;;5.90;;
21777;SDS011;11050;52.222;20.916;2023-05-19T14:02:24;10.27;;;5.65;;
21777;SDS011;11050;52.222;20.916;2023-05-19T14:04:50;10.57;;;5.88;;
21777;SDS011;11050;52.222;20.916;2023-05-19T14:07:16;11.93;;;5.68;;
21777;SDS011;11050;52.222;20.916;2023-05-19T14:09:42;12.27;;;6.10;;
21777;SDS011;11050;52.222;20.916;2023-05-19T14:12:07;10.77;;;5.57;;
21777;SDS011;11050;52.222;20.916;2023-05-19T14:14:36;8.25;;;5.70;;
21777;SDS011;11050;52.222;20.916;2023-05-19T14:17:02;9.00;;;5.82;;
21777;SDS011;11050;52.222;20.916;2023-05-19T14:19:28;9.15;;;5.20;;
21777;SDS011;11050;52.222;20.916;2023-05-19T14:21:54;10.38;;;5.82;;
21777;SDS011;11050;52.222;20.916;2023-05-19T14:24:21;9.52;;;5.90;;
21777;SDS011;11050;52.222;20.916;2023-05-19T14:26:47;11.25;;;5.78;;
21777;SDS011;11050;52.222;20.916;2023-05-19T14:29:13;10.75;;;6.15;;
21777;SDS011;11050;52.222;20.916;2023-05-19T14:31:39;8.23;;;5.68;;
21777;SDS011;11050;52.222;20.916;2023-05-19T14:34:04;10.20;;;5.57;;
21777;SDS011;11050;52.222;20.916;2023-05-19T14:36:30;8.52;;;5.32;;
21777;SDS011;11050;52.222;20.916;2023-05-19T14:38:58;9.60;;;5.43;;
21777;SDS011;11050;52.222;20.916;2023-05-19T14:41:25;8.40;;;5.75;;
21777;SDS011;11050;52.222;20.916;2023-05-19T14:43:51;10.90;;;5.50;;
21777;SDS011;11050;52.222;20.916;2023-05-19T14:46:16;10.13;;;6.43;;
21777;SDS011;11050;52.222;20.916;2023-05-19T14:48:42;9.40;;;5.55;;
21777;SDS011;11050;52.222;20.916;2023-05-19T14:51:08;9.60;;;5.63;;
21777;SDS011;11050;52.222;20.916;2023-05-19T14:53:33;10.05;;;6.20;;
21777;SDS011;11050;52.222;20.916;2023-05-19T14:55:59;10.15;;;5.32;;
21777;SDS011;11050;52.222;20.916;2023-05-19T14:58:25;7.82;;;5.40;;
21777;SDS011;11050;52.222;20.916;2023-05-19T15:00:50;10.32;;;5.78;;
21777;SDS011;11050;52.222;20.916;2023-05-19T15:03:16;14.65;;;6.05;;